logo
Search for airport 
image banner adimage banner adimage banner ad
image banner ad

SBJU - Orlando Bezerra De Menezes

Located in Juazeiro Do Norte, Brazil

ICAO - SBJU, IATA - JDO

Data provided by Airmate  

General information

Coordinates: S7°13'9" W39°16'10"
Elevation is 1342 feet MSL.
Magnetic variation is -21° East
View others Airports in Ceará

Operational data

Special qualification required
Current time UTC:
Current local time:
Weather
METAR: SBJU 131500Z 18008KT 9999 SCT020 31/23 Q1013
View NOTAMs / SUP AIP / TFR affecting this airport [VIEW]
Communications frequencies: [VIEW]

Runways:

RWY identifierQFULength (ft)Width (ft)SurfaceLDA (ft)
132060300ASPH
312060300ASPH

Airport contact information

Address: Juazeiro Do Norte Brazil

Satellite view of SBJU